createdAt,value
2018-07-12T00:00:03.678Z,990.85
2018-07-12T00:01:57.032Z,990.81
2018-07-12T00:02:56.414Z,990.83
2018-07-12T00:04:49.256Z,990.82
2018-07-12T00:05:49.162Z,990.84
2018-07-12T00:07:42.022Z,990.83
2018-07-12T00:08:41.906Z,990.86
2018-07-12T00:10:34.776Z,990.85
2018-07-12T00:11:34.694Z,990.85
2018-07-12T00:13:28.049Z,990.88
2018-07-12T00:14:27.406Z,990.95
2018-07-12T00:16:20.759Z,990.94
2018-07-12T00:17:20.207Z,990.95
2018-07-12T00:19:13.017Z,990.95
2018-07-12T00:20:12.933Z,990.97
2018-07-12T00:22:05.762Z,991.00
2018-07-12T00:23:05.656Z,990.99
2018-07-12T00:24:58.518Z,990.95
2018-07-12T00:25:58.397Z,990.96
2018-07-12T00:27:51.265Z,990.96
2018-07-12T00:28:51.160Z,990.92
2018-07-12T00:30:44.003Z,990.91
2018-07-12T00:31:43.920Z,990.89
2018-07-12T00:33:36.801Z,990.88
2018-07-12T00:34:36.664Z,990.88
2018-07-12T00:36:29.520Z,990.90
2018-07-12T00:37:29.438Z,990.87
2018-07-12T00:39:22.554Z,990.91
2018-07-12T00:40:22.458Z,990.93
2018-07-12T00:42:15.835Z,990.96
2018-07-12T00:43:15.208Z,990.95
2018-07-12T00:45:08.056Z,990.92
2018-07-12T00:46:07.961Z,990.93
2018-07-12T00:48:00.816Z,990.87
2018-07-12T00:49:00.723Z,990.94
2018-07-12T00:50:53.568Z,990.93
2018-07-12T00:51:53.507Z,990.88
2018-07-12T00:53:46.337Z,990.89
2018-07-12T00:54:46.204Z,990.89
2018-07-12T00:56:40.155Z,990.93
2018-07-12T00:57:40.002Z,990.92
2018-07-12T00:59:32.834Z,990.94
2018-07-12T01:00:32.728Z,990.93
2018-07-12T01:02:26.096Z,990.93
2018-07-12T01:03:25.504Z,990.90
2018-07-12T01:05:18.326Z,990.87
2018-07-12T01:06:18.236Z,990.89
2018-07-12T01:08:11.107Z,990.86
2018-07-12T01:09:10.981Z,990.86
2018-07-12T01:11:03.836Z,990.84
2018-07-12T01:12:03.724Z,990.85
2018-07-12T01:13:57.096Z,990.86
2018-07-12T01:14:56.476Z,990.84
2018-07-12T01:16:49.323Z,990.86
2018-07-12T01:17:49.233Z,990.87
2018-07-12T01:19:42.109Z,990.90
2018-07-12T01:20:41.978Z,990.85
2018-07-12T01:22:34.867Z,990.85
2018-07-12T01:23:34.756Z,990.80
2018-07-12T01:25:27.590Z,990.77
2018-07-12T01:26:27.487Z,990.77
2018-07-12T01:28:20.345Z,990.81
2018-07-12T01:29:20.227Z,990.81
2018-07-12T01:31:13.106Z,990.80
2018-07-12T01:32:12.994Z,990.85
2018-07-12T01:34:05.818Z,990.82
2018-07-12T01:35:05.727Z,990.84
2018-07-12T01:36:58.574Z,990.87
2018-07-12T01:37:58.480Z,990.84
2018-07-12T01:39:51.366Z,990.82
2018-07-12T01:40:51.230Z,990.81
2018-07-12T01:42:44.193Z,990.81
2018-07-12T01:43:44.076Z,990.81
2018-07-12T01:45:36.942Z,990.80
2018-07-12T01:46:36.829Z,990.78
2018-07-12T01:48:30.187Z,990.77
2018-07-12T01:49:29.569Z,990.80
2018-07-12T01:51:22.435Z,990.81
2018-07-12T01:52:22.380Z,990.80
2018-07-12T01:54:15.683Z,990.83
2018-07-12T01:55:15.074Z,990.83
2018-07-12T01:57:07.926Z,990.80
2018-07-12T01:58:07.844Z,990.83
2018-07-12T02:00:00.686Z,990.78
2018-07-12T02:01:00.590Z,990.78
2018-07-12T02:02:53.478Z,990.79
2018-07-12T02:03:53.352Z,990.75
2018-07-12T02:05:46.274Z,990.73
2018-07-12T02:06:46.173Z,990.76
2018-07-12T02:08:39.037Z,990.73
2018-07-12T02:09:38.930Z,990.70
2018-07-12T02:11:32.174Z,990.69
2018-07-12T02:12:32.089Z,990.71
2018-07-12T02:14:25.452Z,990.70
2018-07-12T02:15:24.829Z,990.70
2018-07-12T02:17:18.270Z,990.65
2018-07-12T02:18:17.621Z,990.69
2018-07-12T02:20:10.753Z,990.66
2018-07-12T02:21:10.638Z,990.67
2018-07-12T02:23:03.991Z,990.67
2018-07-12T02:24:03.438Z,990.70
2018-07-12T02:25:56.786Z,990.71
2018-07-12T02:26:56.667Z,990.75
2018-07-12T02:28:51.060Z,990.75
2018-07-12T02:29:50.940Z,990.74
2018-07-12T02:31:44.325Z,990.76
2018-07-12T02:32:44.320Z,990.75
2018-07-12T02:34:37.563Z,990.76
2018-07-12T02:35:37.502Z,990.77
2018-07-12T02:37:30.832Z,990.77
2018-07-12T02:38:30.726Z,990.73
2018-07-12T02:40:24.074Z,990.73
2018-07-12T02:41:23.988Z,990.72
2018-07-12T02:43:16.862Z,990.69
2018-07-12T02:44:16.747Z,990.75
2018-07-12T02:46:09.574Z,990.72
2018-07-12T02:47:09.486Z,990.70
2018-07-12T02:49:02.658Z,990.68
2018-07-12T02:50:02.538Z,990.72
2018-07-12T02:51:55.921Z,990.69
2018-07-12T02:52:55.291Z,990.69
2018-07-12T02:54:48.130Z,990.65
2018-07-12T02:55:48.085Z,990.66
2018-07-12T02:57:40.899Z,990.66
2018-07-12T02:58:40.811Z,990.61
2018-07-12T03:00:33.558Z,990.65
2018-07-12T03:01:33.443Z,990.66
2018-07-12T03:03:26.295Z,990.68
2018-07-12T03:04:26.181Z,990.66
2018-07-12T03:06:19.027Z,990.65
2018-07-12T03:07:19.015Z,990.65
2018-07-12T03:09:11.806Z,990.66
2018-07-12T03:10:11.683Z,990.63
2018-07-12T03:12:04.523Z,990.69
2018-07-12T03:13:04.431Z,990.64
2018-07-12T03:14:57.285Z,990.67
2018-07-12T03:15:57.208Z,990.67
2018-07-12T03:17:50.056Z,990.62
2018-07-12T03:18:49.953Z,990.62
2018-07-12T03:20:42.693Z,990.58
2018-07-12T03:21:42.583Z,990.60
2018-07-12T03:23:35.449Z,990.63
2018-07-12T03:24:35.328Z,990.62
2018-07-12T03:26:28.195Z,990.66
2018-07-12T03:27:28.074Z,990.69
2018-07-12T03:29:20.933Z,990.70
2018-07-12T03:30:20.838Z,990.70
2018-07-12T03:32:14.244Z,990.78
2018-07-12T03:33:13.582Z,990.80
2018-07-12T03:35:06.430Z,990.80
2018-07-12T03:36:06.332Z,990.79
2018-07-12T03:37:59.178Z,990.79
2018-07-12T03:38:59.081Z,990.78
2018-07-12T03:40:51.992Z,990.84
2018-07-12T03:41:51.824Z,990.80
2018-07-12T03:43:44.692Z,990.83
2018-07-12T03:44:44.583Z,990.82
2018-07-12T03:46:37.476Z,990.82
2018-07-12T03:47:37.324Z,990.79
2018-07-12T03:49:30.170Z,990.78
2018-07-12T03:50:30.072Z,990.78
2018-07-12T03:52:22.948Z,990.82
2018-07-12T03:53:22.825Z,990.81
2018-07-12T03:55:15.664Z,990.85
2018-07-12T03:56:15.571Z,990.85
2018-07-12T03:58:08.477Z,990.84
2018-07-12T03:59:08.341Z,990.82
2018-07-12T04:01:01.183Z,990.79
2018-07-12T04:02:01.095Z,990.78
2018-07-12T04:03:53.993Z,990.75
2018-07-12T04:04:53.820Z,990.77
2018-07-12T04:06:46.662Z,990.77
2018-07-12T04:07:46.578Z,990.79
2018-07-12T04:09:39.457Z,990.85
2018-07-12T04:10:39.338Z,990.82
2018-07-12T04:12:32.200Z,990.79
2018-07-12T04:13:32.072Z,990.84
2018-07-12T04:15:24.956Z,990.85
2018-07-12T04:16:24.841Z,990.83
2018-07-12T04:18:17.692Z,990.81
2018-07-12T04:19:17.568Z,990.78
2018-07-12T04:21:10.337Z,990.81
2018-07-12T04:22:10.227Z,990.84
2018-07-12T04:24:03.093Z,990.86
2018-07-12T04:25:02.968Z,990.87
2018-07-12T04:26:55.729Z,990.85
2018-07-12T04:27:55.611Z,990.88
2018-07-12T04:29:48.365Z,990.89
2018-07-12T04:30:48.264Z,990.89
2018-07-12T04:32:41.140Z,990.84
2018-07-12T04:33:41.016Z,990.85
2018-07-12T04:35:33.752Z,990.80
2018-07-12T04:36:33.669Z,990.81
2018-07-12T04:38:26.427Z,990.79
2018-07-12T04:39:26.313Z,990.76
2018-07-12T04:41:19.090Z,990.80
2018-07-12T04:42:18.954Z,990.76
2018-07-12T04:44:11.723Z,990.73
2018-07-12T04:45:11.601Z,990.72
2018-07-12T04:47:04.454Z,990.73
2018-07-12T04:48:04.358Z,990.77
2018-07-12T04:49:57.191Z,990.76
2018-07-12T04:50:57.114Z,990.75
2018-07-12T04:52:49.867Z,990.76
2018-07-12T04:53:49.755Z,990.75
2018-07-12T04:55:42.641Z,990.72
2018-07-12T04:56:42.496Z,990.70
2018-07-12T04:58:35.459Z,990.70
2018-07-12T04:59:35.245Z,990.71
2018-07-12T05:01:28.140Z,990.72
2018-07-12T05:02:27.891Z,990.72
2018-07-12T05:04:20.656Z,990.70
2018-07-12T05:05:20.543Z,990.73
2018-07-12T05:07:13.408Z,990.77
2018-07-12T05:08:13.287Z,990.78
2018-07-12T05:10:05.963Z,990.78
2018-07-12T05:11:05.847Z,990.76
2018-07-12T05:12:58.697Z,990.82
2018-07-12T05:13:58.588Z,990.81
2018-07-12T05:15:51.338Z,990.77
2018-07-12T05:16:51.242Z,990.79
2018-07-12T05:18:43.979Z,990.77
2018-07-12T05:19:43.910Z,990.77
2018-07-12T05:21:36.730Z,990.77
2018-07-12T05:22:36.623Z,990.77
2018-07-12T05:24:29.374Z,990.75
2018-07-12T05:25:29.339Z,990.80
2018-07-12T05:27:22.029Z,990.80
2018-07-12T05:28:21.954Z,990.74
2018-07-12T05:30:14.821Z,990.73
2018-07-12T05:31:14.679Z,990.79
2018-07-12T05:33:07.429Z,990.79
2018-07-12T05:34:07.319Z,990.77
2018-07-12T05:36:00.163Z,990.72
2018-07-12T05:37:00.063Z,990.73
2018-07-12T05:38:52.981Z,990.76
2018-07-12T05:39:52.739Z,990.84
2018-07-12T05:41:45.595Z,990.87
2018-07-12T05:42:45.378Z,990.86
2018-07-12T05:44:38.236Z,990.89
2018-07-12T05:45:38.112Z,990.90
2018-07-12T05:47:30.887Z,990.90
2018-07-12T05:48:30.759Z,990.87
2018-07-12T05:50:23.625Z,990.88
2018-07-12T05:51:23.564Z,990.89
2018-07-12T05:53:16.386Z,990.92
2018-07-12T05:54:16.258Z,990.93
2018-07-12T05:56:09.026Z,990.95
2018-07-12T05:57:08.913Z,990.94
2018-07-12T05:59:01.775Z,990.99
2018-07-12T06:00:01.652Z,990.99
2018-07-12T06:01:54.434Z,991.02
2018-07-12T06:02:54.343Z,991.03
2018-07-12T06:04:47.065Z,991.02
2018-07-12T06:05:46.953Z,991.01
2018-07-12T06:07:39.820Z,991.02
2018-07-12T06:08:39.703Z,991.05
2018-07-12T06:10:32.464Z,991.06
2018-07-12T06:11:32.410Z,991.06
2018-07-12T06:13:25.319Z,991.09
2018-07-12T06:14:25.225Z,991.06
2018-07-12T06:16:17.987Z,991.13
2018-07-12T06:17:17.850Z,991.12
2018-07-12T06:19:10.724Z,991.17
2018-07-12T06:20:10.593Z,991.19
2018-07-12T06:22:03.366Z,991.24
2018-07-12T06:23:03.256Z,991.25
2018-07-12T06:24:56.123Z,991.25
2018-07-12T06:25:55.993Z,991.26
2018-07-12T06:27:48.770Z,991.23
2018-07-12T06:28:48.647Z,991.24
2018-07-12T06:30:41.398Z,991.26
2018-07-12T06:31:41.308Z,991.26
2018-07-12T06:33:34.167Z,991.26
2018-07-12T06:34:34.039Z,991.26
2018-07-12T06:36:26.780Z,991.29
2018-07-12T06:37:26.694Z,991.32
2018-07-12T06:39:19.549Z,991.33
2018-07-12T06:40:19.447Z,991.36
2018-07-12T06:42:12.205Z,991.35
2018-07-12T06:43:12.081Z,991.35
2018-07-12T06:45:04.947Z,991.40
2018-07-12T06:46:04.844Z,991.41
2018-07-12T06:47:57.606Z,991.35
2018-07-12T06:48:57.492Z,991.39
2018-07-12T06:50:50.233Z,991.38
2018-07-12T06:51:50.133Z,991.42
2018-07-12T06:53:42.879Z,991.41
2018-07-12T06:54:42.770Z,991.41
2018-07-12T06:56:35.640Z,991.38
2018-07-12T06:57:35.527Z,991.29
2018-07-12T06:59:28.311Z,991.29
2018-07-12T07:00:28.178Z,991.35
2018-07-12T07:02:21.057Z,991.28
2018-07-12T07:03:20.922Z,991.33
2018-07-12T07:05:13.658Z,991.26
2018-07-12T07:06:13.577Z,991.31
2018-07-12T07:08:06.528Z,991.24
2018-07-12T07:09:06.446Z,991.25
2018-07-12T07:10:59.165Z,991.29
2018-07-12T07:11:59.079Z,991.25
2018-07-12T07:13:51.821Z,991.23
2018-07-12T07:14:51.830Z,991.24
2018-07-12T07:16:45.071Z,991.24
2018-07-12T07:17:44.969Z,991.31
2018-07-12T07:19:37.834Z,991.32
2018-07-12T07:20:37.727Z,991.29
2018-07-12T07:22:30.478Z,991.39
2018-07-12T07:23:30.374Z,991.34
2018-07-12T07:25:23.212Z,991.43
2018-07-12T07:26:23.255Z,991.37
2018-07-12T07:28:15.894Z,991.39
2018-07-12T07:29:15.768Z,991.40
2018-07-12T07:31:09.114Z,991.41
2018-07-12T07:32:08.621Z,991.42
2018-07-12T07:34:01.413Z,991.41
2018-07-12T07:35:01.271Z,991.37
2018-07-12T07:36:54.014Z,991.41
2018-07-12T07:37:53.925Z,991.39
2018-07-12T07:39:46.780Z,991.40
2018-07-12T07:40:46.685Z,991.44
2018-07-12T07:42:39.613Z,991.45
2018-07-12T07:43:39.528Z,991.39
2018-07-12T07:45:32.369Z,991.35
2018-07-12T07:46:32.273Z,991.31
2018-07-12T07:48:25.116Z,991.25
2018-07-12T07:49:25.105Z,991.31
2018-07-12T07:51:17.876Z,991.24
2018-07-12T07:52:17.767Z,991.27
2018-07-12T07:54:10.634Z,991.27
2018-07-12T07:55:10.513Z,991.29
2018-07-12T07:57:03.809Z,991.26
2018-07-12T07:58:03.705Z,991.23
2018-07-12T07:59:56.571Z,991.27
2018-07-12T08:00:56.428Z,991.29
2018-07-12T08:02:49.273Z,991.35
2018-07-12T08:03:49.176Z,991.33
2018-07-12T08:05:42.042Z,991.35
2018-07-12T08:06:41.937Z,991.32
2018-07-12T08:08:34.775Z,991.31
2018-07-12T08:09:34.711Z,991.33
2018-07-12T08:11:27.526Z,991.35
2018-07-12T08:12:27.421Z,991.28
2018-07-12T08:14:20.264Z,991.30
2018-07-12T08:15:20.166Z,991.34
2018-07-12T08:17:13.042Z,991.34
2018-07-12T08:18:13.431Z,991.28
2018-07-12T08:20:05.815Z,991.25
2018-07-12T08:21:05.673Z,991.23
2018-07-12T08:22:58.512Z,991.26
2018-07-12T08:23:58.425Z,991.29
2018-07-12T08:25:51.198Z,991.29
2018-07-12T08:26:51.068Z,991.19
2018-07-12T08:28:43.958Z,991.27
2018-07-12T08:29:43.813Z,991.29
2018-07-12T08:31:36.663Z,991.29
2018-07-12T08:32:36.563Z,991.28
2018-07-12T08:34:29.409Z,991.31
2018-07-12T08:35:29.398Z,991.28
2018-07-12T08:37:22.193Z,991.31
2018-07-12T08:38:22.068Z,991.33
2018-07-12T08:40:14.828Z,991.37
2018-07-12T08:41:14.713Z,991.40
2018-07-12T08:43:07.559Z,991.35
2018-07-12T08:44:07.546Z,991.37
2018-07-12T08:46:00.323Z,991.37
2018-07-12T08:47:00.222Z,991.47
2018-07-12T08:48:53.097Z,991.36
2018-07-12T08:49:52.958Z,991.47
2018-07-12T08:51:45.840Z,991.41
2018-07-12T08:52:45.711Z,991.43
2018-07-12T08:54:38.590Z,991.44
2018-07-12T08:55:38.468Z,991.44
2018-07-12T08:57:31.328Z,991.40
2018-07-12T08:58:31.222Z,991.51
2018-07-12T09:00:24.081Z,991.38
2018-07-12T09:01:24.044Z,991.35
2018-07-12T09:03:16.800Z,991.43
2018-07-12T09:04:16.720Z,991.37
2018-07-12T09:06:09.588Z,991.43
2018-07-12T09:07:09.458Z,991.39
2018-07-12T09:09:02.301Z,991.35
2018-07-12T09:10:02.209Z,991.37
2018-07-12T09:11:55.070Z,991.39
2018-07-12T09:12:54.957Z,991.37
2018-07-12T09:14:47.851Z,991.35
2018-07-12T09:15:47.801Z,991.35
2018-07-12T09:17:40.550Z,991.39
2018-07-12T09:18:40.467Z,991.43
2018-07-12T09:20:33.316Z,991.42
2018-07-12T09:21:33.205Z,991.43
2018-07-12T09:23:26.592Z,991.43
2018-07-12T09:24:26.485Z,991.42
2018-07-12T09:26:19.350Z,991.41
2018-07-12T09:27:19.218Z,991.43
2018-07-12T09:29:12.072Z,991.41
2018-07-12T09:30:11.977Z,991.37
2018-07-12T09:32:04.816Z,991.41
2018-07-12T09:33:04.734Z,991.37
2018-07-12T09:34:57.665Z,991.43
2018-07-12T09:35:57.462Z,991.49
2018-07-12T09:37:50.366Z,991.49
2018-07-12T09:38:50.225Z,991.49
2018-07-12T09:40:43.071Z,991.56
2018-07-12T09:41:42.964Z,991.55
2018-07-12T09:43:35.813Z,991.54
2018-07-12T09:44:35.717Z,991.59
2018-07-12T09:46:28.576Z,991.48
2018-07-12T09:47:28.531Z,991.61
2018-07-12T09:49:21.812Z,991.49
2018-07-12T09:50:21.624Z,991.55
2018-07-12T09:52:14.525Z,991.49
2018-07-12T09:53:14.382Z,991.53
2018-07-12T09:55:07.229Z,991.48
2018-07-12T09:56:07.221Z,991.53
2018-07-12T09:57:59.989Z,991.61
2018-07-12T09:58:59.883Z,991.50
2018-07-12T10:00:52.743Z,991.52
2018-07-12T10:01:52.623Z,991.58
2018-07-12T10:03:45.466Z,991.55
2018-07-12T10:04:45.378Z,991.55
2018-07-12T10:06:38.248Z,991.54
2018-07-12T10:07:38.139Z,991.45
2018-07-12T10:09:31.000Z,991.49
2018-07-12T10:10:30.911Z,991.50
2018-07-12T10:12:23.758Z,991.51
2018-07-12T10:13:23.624Z,991.52
2018-07-12T10:15:16.460Z,991.49
2018-07-12T10:16:16.373Z,991.48
2018-07-12T10:18:09.250Z,991.42
2018-07-12T10:19:09.145Z,991.42
2018-07-12T10:21:01.967Z,991.41
2018-07-12T10:22:01.875Z,991.47
2018-07-12T10:23:54.757Z,991.43
2018-07-12T10:24:54.636Z,991.44
2018-07-12T10:26:47.483Z,991.42
2018-07-12T10:27:47.378Z,991.39
2018-07-12T10:29:40.275Z,991.45
2018-07-12T10:30:40.147Z,991.45
2018-07-12T10:32:32.992Z,991.49
2018-07-12T10:33:32.886Z,991.47
2018-07-12T10:35:25.733Z,991.48
2018-07-12T10:36:25.622Z,991.52
2018-07-12T10:38:18.506Z,991.50
2018-07-12T10:39:18.390Z,991.50
2018-07-12T10:41:11.213Z,991.51
2018-07-12T10:42:11.132Z,991.50
2018-07-12T10:44:03.974Z,991.47
2018-07-12T10:45:03.873Z,991.45
2018-07-12T10:46:57.255Z,991.49
2018-07-12T10:47:57.042Z,991.51
2018-07-12T10:49:49.900Z,991.51
2018-07-12T10:50:49.805Z,991.62
2018-07-12T10:52:42.673Z,991.49
2018-07-12T10:53:42.526Z,991.56
2018-07-12T10:55:35.386Z,991.46
2018-07-12T10:56:35.274Z,991.48
2018-07-12T10:58:28.548Z,991.46
2018-07-12T10:59:28.449Z,991.45
2018-07-12T11:01:21.285Z,991.47
2018-07-12T11:02:21.185Z,991.50
2018-07-12T11:04:14.066Z,991.54
2018-07-12T11:05:13.941Z,991.49
2018-07-12T11:07:06.804Z,991.50
2018-07-12T11:08:06.680Z,991.52
2018-07-12T11:09:59.553Z,991.51
2018-07-12T11:10:59.448Z,991.56
2018-07-12T11:12:52.362Z,991.59
2018-07-12T11:13:52.181Z,991.57
2018-07-12T11:15:45.099Z,991.54
2018-07-12T11:16:44.937Z,991.61
2018-07-12T11:18:37.797Z,991.56
2018-07-12T11:19:37.682Z,991.53
2018-07-12T11:21:30.517Z,991.53
2018-07-12T11:22:30.436Z,991.54
2018-07-12T11:24:23.287Z,991.50
2018-07-12T11:25:23.205Z,991.51
2018-07-12T11:27:16.038Z,991.47
2018-07-12T11:28:15.959Z,991.45
2018-07-12T11:30:08.841Z,991.53
2018-07-12T11:31:08.680Z,991.55
2018-07-12T11:33:01.539Z,991.73
2018-07-12T11:34:01.427Z,991.78
2018-07-12T11:35:54.272Z,991.80
2018-07-12T11:36:54.181Z,991.81
2018-07-12T11:38:47.044Z,991.83
2018-07-12T11:39:46.936Z,991.83
2018-07-12T11:41:39.792Z,991.87
2018-07-12T11:42:39.677Z,991.87
2018-07-12T11:44:32.546Z,991.86
2018-07-12T11:45:32.447Z,991.88
2018-07-12T11:47:25.366Z,991.84
2018-07-12T11:48:25.190Z,991.83
2018-07-12T11:50:18.447Z,991.84
2018-07-12T11:51:18.351Z,991.80
2018-07-12T11:53:11.197Z,991.78
2018-07-12T11:54:11.080Z,991.76
2018-07-12T11:56:03.929Z,991.79
2018-07-12T11:57:03.852Z,991.78
2018-07-12T11:58:56.736Z,991.74
2018-07-12T11:59:56.597Z,991.76
2018-07-12T12:01:49.527Z,991.77
2018-07-12T12:02:49.344Z,991.80
2018-07-12T12:04:42.195Z,991.81
2018-07-12T12:05:42.082Z,991.83
2018-07-12T12:07:34.930Z,991.88
2018-07-12T12:08:34.834Z,991.85
2018-07-12T12:10:27.721Z,991.87
2018-07-12T12:11:27.586Z,991.92
2018-07-12T12:13:20.424Z,991.86
2018-07-12T12:14:20.334Z,991.87
2018-07-12T12:16:13.199Z,991.80
2018-07-12T12:17:13.091Z,991.80
2018-07-12T12:19:05.957Z,991.84
2018-07-12T12:20:05.838Z,991.85
2018-07-12T12:21:58.703Z,991.81
2018-07-12T12:22:58.601Z,991.84
2018-07-12T12:24:51.442Z,991.81
2018-07-12T12:25:51.332Z,991.84
2018-07-12T12:27:44.213Z,991.83
2018-07-12T12:28:44.097Z,991.78
2018-07-12T12:30:36.944Z,991.76
2018-07-12T12:31:36.833Z,991.80
2018-07-12T12:33:29.731Z,991.77
2018-07-12T12:34:29.585Z,991.81
2018-07-12T12:36:22.424Z,991.78
2018-07-12T12:37:22.340Z,991.82
2018-07-12T12:39:15.201Z,991.78
2018-07-12T12:40:15.085Z,991.79
2018-07-12T12:42:07.951Z,991.74
2018-07-12T12:43:07.840Z,991.77
2018-07-12T12:45:00.696Z,991.73
2018-07-12T12:46:00.579Z,991.68
2018-07-12T12:47:53.936Z,991.71
2018-07-12T12:48:53.751Z,991.69
2018-07-12T12:50:46.643Z,991.64
2018-07-12T12:51:46.490Z,991.60
2018-07-12T12:53:39.336Z,991.58
2018-07-12T12:54:39.262Z,991.56
2018-07-12T12:56:32.099Z,991.60
2018-07-12T12:57:31.997Z,991.62
2018-07-12T12:59:24.844Z,991.58
2018-07-12T13:00:24.745Z,991.61
2018-07-12T13:02:17.616Z,991.63
2018-07-12T13:03:17.525Z,991.61
2018-07-12T13:05:10.342Z,991.51
2018-07-12T13:06:10.246Z,991.54
2018-07-12T13:08:03.125Z,991.52
2018-07-12T13:09:03.004Z,991.54
2018-07-12T13:10:55.849Z,991.48
2018-07-12T13:11:55.748Z,991.47
2018-07-12T13:13:48.647Z,991.45
2018-07-12T13:14:48.503Z,991.49
2018-07-12T13:16:41.348Z,991.45
2018-07-12T13:17:41.238Z,991.46
2018-07-12T13:19:34.092Z,991.45
2018-07-12T13:20:33.985Z,991.38
2018-07-12T13:22:26.851Z,991.34
2018-07-12T13:23:26.750Z,991.40
2018-07-12T13:25:19.678Z,991.36
2018-07-12T13:26:19.497Z,991.33
2018-07-12T13:28:12.368Z,991.36
2018-07-12T13:29:12.243Z,991.41
2018-07-12T13:31:05.090Z,991.40
2018-07-12T13:32:05.005Z,991.38
2018-07-12T13:33:57.818Z,991.34
2018-07-12T13:34:57.731Z,991.40
2018-07-12T13:36:50.593Z,991.33
2018-07-12T13:37:50.493Z,991.35
2018-07-12T13:39:43.358Z,991.40
2018-07-12T13:40:43.237Z,991.36
2018-07-12T13:42:36.091Z,991.38
2018-07-12T13:43:35.991Z,991.30
2018-07-12T13:45:28.837Z,991.37
2018-07-12T13:46:28.732Z,991.40
2018-07-12T13:48:21.573Z,991.47
2018-07-12T13:49:21.487Z,991.36
2018-07-12T13:51:14.397Z,991.38
2018-07-12T13:52:14.320Z,991.39
2018-07-12T13:54:07.069Z,991.39
2018-07-12T13:55:06.989Z,991.39
2018-07-12T13:56:59.858Z,991.30
2018-07-12T13:57:59.750Z,991.30
2018-07-12T13:59:52.585Z,991.28
2018-07-12T14:00:52.509Z,991.29
2018-07-12T14:02:45.334Z,991.21
2018-07-12T14:03:45.236Z,991.21
2018-07-12T14:05:38.123Z,991.18
2018-07-12T14:06:37.986Z,991.18
2018-07-12T14:08:30.849Z,991.12
2018-07-12T14:09:30.745Z,991.12
2018-07-12T14:11:23.580Z,991.07
2018-07-12T14:12:23.514Z,991.10
2018-07-12T14:14:16.347Z,991.15
2018-07-12T14:15:16.238Z,991.11
2018-07-12T14:17:09.172Z,991.15
2018-07-12T14:18:08.994Z,991.10
2018-07-12T14:20:01.816Z,991.15
2018-07-12T14:21:01.749Z,991.12
2018-07-12T14:22:54.604Z,991.07
2018-07-12T14:23:54.481Z,991.08
2018-07-12T14:25:47.341Z,991.10
2018-07-12T14:26:47.259Z,991.13
2018-07-12T14:28:40.082Z,991.05
2018-07-12T14:29:39.988Z,991.03
2018-07-12T14:31:32.831Z,991.10
2018-07-12T14:32:32.764Z,991.05
2018-07-12T14:34:25.566Z,991.09
2018-07-12T14:35:25.490Z,991.05
2018-07-12T14:37:18.333Z,991.01
2018-07-12T14:38:18.241Z,990.99
2018-07-12T14:40:11.064Z,991.01
2018-07-12T14:41:10.976Z,991.01
2018-07-12T14:43:04.360Z,991.04
2018-07-12T14:44:04.329Z,990.99
2018-07-12T14:45:57.095Z,990.99
2018-07-12T14:46:57.024Z,991.06
2018-07-12T14:48:50.370Z,991.02
2018-07-12T14:49:50.256Z,991.05
2018-07-12T14:51:54.674Z,990.98
2018-07-12T14:52:46.309Z,991.03
2018-07-12T14:54:39.270Z,991.02
2018-07-12T14:55:39.035Z,991.04
2018-07-12T14:57:31.894Z,991.05
2018-07-12T14:58:31.782Z,991.09
2018-07-12T15:00:24.660Z,991.23
2018-07-12T15:01:24.535Z,991.17
2018-07-12T15:03:17.435Z,991.20
2018-07-12T15:04:17.319Z,991.13
2018-07-12T15:06:10.117Z,991.15
2018-07-12T15:07:10.040Z,991.18
2018-07-12T15:09:02.917Z,991.27
2018-07-12T15:10:02.788Z,991.19
2018-07-12T15:11:55.620Z,991.24
2018-07-12T15:12:55.811Z,991.24
2018-07-12T15:14:48.370Z,991.16
2018-07-12T15:15:48.276Z,991.22
2018-07-12T15:17:41.131Z,991.19
2018-07-12T15:18:41.044Z,991.23
2018-07-12T15:20:34.298Z,991.30
2018-07-12T15:21:34.192Z,991.29
2018-07-12T15:23:27.451Z,991.28
2018-07-12T15:24:27.407Z,991.27
2018-07-12T15:26:20.253Z,991.29
2018-07-12T15:27:20.103Z,991.24
2018-07-12T15:29:13.005Z,991.28
2018-07-12T15:30:12.911Z,991.32
2018-07-12T15:32:05.677Z,991.32
2018-07-12T15:33:05.618Z,991.32
2018-07-12T15:34:58.488Z,991.34
2018-07-12T15:35:58.350Z,991.32
2018-07-12T15:37:51.194Z,991.31
2018-07-12T15:38:51.096Z,991.29
2018-07-12T15:40:43.946Z,991.27
2018-07-12T15:41:43.847Z,991.30
2018-07-12T15:43:36.696Z,991.28
2018-07-12T15:44:36.597Z,991.27
2018-07-12T15:46:29.451Z,991.26
2018-07-12T15:47:29.338Z,991.27
2018-07-12T15:49:22.195Z,991.30
2018-07-12T15:50:22.083Z,991.28
2018-07-12T15:52:15.495Z,991.30
2018-07-12T15:53:15.289Z,991.27
2018-07-12T15:55:08.093Z,991.30
2018-07-12T15:56:07.995Z,991.24
2018-07-12T15:58:01.793Z,991.26
2018-07-12T15:59:01.681Z,991.29
2018-07-12T16:00:54.515Z,991.30
2018-07-12T16:01:54.503Z,991.29
2018-07-12T16:03:47.259Z,991.29
2018-07-12T16:04:47.174Z,991.28
2018-07-12T16:06:40.531Z,991.26
2018-07-12T16:07:39.921Z,991.26
2018-07-12T16:09:32.779Z,991.29
2018-07-12T16:10:32.690Z,991.24
2018-07-12T16:12:25.543Z,991.29
2018-07-12T16:13:25.422Z,991.26
2018-07-12T16:15:18.264Z,991.45
2018-07-12T16:16:18.171Z,991.46
2018-07-12T16:18:11.033Z,991.51
2018-07-12T16:19:10.908Z,991.57
2018-07-12T16:21:03.771Z,991.58
2018-07-12T16:22:03.669Z,991.23
2018-07-12T16:23:56.547Z,991.19
2018-07-12T16:24:56.420Z,991.19
2018-07-12T16:26:49.302Z,991.23
2018-07-12T16:27:49.171Z,991.23
2018-07-12T16:29:42.019Z,991.22
2018-07-12T16:30:41.925Z,991.22
2018-07-12T16:32:35.316Z,991.20
2018-07-12T16:33:35.070Z,991.19
2018-07-12T16:35:27.959Z,991.19
2018-07-12T16:36:27.850Z,991.22
2018-07-12T16:38:21.093Z,991.22
2018-07-12T16:39:21.021Z,991.19
2018-07-12T16:41:13.878Z,991.20
2018-07-12T16:42:13.755Z,991.26
2018-07-12T16:44:06.564Z,991.25
2018-07-12T16:45:06.490Z,991.25
2018-07-12T16:46:59.335Z,991.27
2018-07-12T16:47:59.230Z,991.29
2018-07-12T16:49:52.197Z,991.33
2018-07-12T16:50:52.086Z,991.38
2018-07-12T16:52:44.950Z,991.34
2018-07-12T16:53:44.843Z,991.35
2018-07-12T16:55:37.674Z,991.36
2018-07-12T16:56:37.588Z,991.36
2018-07-12T16:58:30.444Z,991.48
2018-07-12T16:59:30.332Z,991.45
2018-07-12T17:01:23.638Z,991.53
2018-07-12T17:02:23.512Z,991.47
2018-07-12T17:04:17.872Z,991.48
2018-07-12T17:05:17.805Z,991.48
2018-07-12T17:07:10.669Z,991.47
2018-07-12T17:08:10.531Z,991.47
2018-07-12T17:10:03.367Z,991.51
2018-07-12T17:11:03.276Z,991.56
2018-07-12T17:12:56.165Z,991.54
2018-07-12T17:13:56.027Z,991.61
2018-07-12T17:15:50.309Z,991.54
2018-07-12T17:16:50.273Z,991.56
2018-07-12T17:18:43.159Z,991.64
2018-07-12T17:19:43.098Z,991.65
2018-07-12T17:21:35.813Z,991.65
2018-07-12T17:22:35.702Z,991.65
2018-07-12T17:24:29.085Z,991.68
2018-07-12T17:25:28.463Z,991.68
2018-07-12T17:27:21.324Z,991.68
2018-07-12T17:28:21.200Z,991.70
2018-07-12T17:30:14.585Z,991.67
2018-07-12T17:31:13.968Z,991.69
2018-07-12T17:33:06.886Z,991.67
2018-07-12T17:34:06.705Z,991.66
2018-07-12T17:35:59.563Z,991.65
2018-07-12T17:36:59.451Z,991.68
2018-07-12T17:38:52.303Z,991.68
2018-07-12T17:39:52.198Z,991.69
2018-07-12T17:41:45.047Z,991.65
2018-07-12T17:42:44.985Z,991.71
2018-07-12T17:44:37.948Z,991.71
2018-07-12T17:45:37.832Z,991.71
2018-07-12T17:47:30.665Z,991.74
2018-07-12T17:48:30.572Z,991.70
2018-07-12T17:50:23.404Z,991.71
2018-07-12T17:51:23.302Z,991.73
2018-07-12T17:53:16.170Z,991.75
2018-07-12T17:54:16.052Z,991.72
2018-07-12T17:56:08.925Z,991.75
2018-07-12T17:57:08.816Z,991.77